Stations météo

Publicité
Carpentras, France (7586): Température de l'air & dewpoint: 10.07.2019 00:00:00 - 16.07.2019 00:00:00 (CEST)Carpentras, France (7586): Température de l'air 5cm: 10.07.2019 00:00:00 - 16.07.2019 00:00:00 (CEST)Carpentras, France (7586): Vitesse du vent & gusts: 10.07.2019 00:00:00 - 16.07.2019 00:00:00 (CEST)Carpentras, France (7586): Direction du vent: 10.07.2019 00:00:00 - 16.07.2019 00:00:00 (CEST)Carpentras, France (7586): reduced air pressure: 10.07.2019 00:00:00 - 16.07.2019 00:00:00 (CEST)Carpentras, France (7586): Ensoleillement: 10.07.2019 00:00:00 - 16.07.2019 00:00:00 (CEST)Carpentras, France (7586): Quantités de précipitations: 10.07.2019 00:00:00 - 16.07.2019 00:00:00 (CEST)
Date & Time tt [°C] td [°C] tt 5cm [°C] ff [km/h] ff [knt] fx [km/h] fx [knt] dd ppp [hPa] sd [min] rr [mm]
16.07.2019 00:00:00 - - - - - - - - - - -
15.07.2019 23:00:00 24,2 10,8 23,0 13 7 36 19 NNW 1012,0 0 0,0
15.07.2019 22:00:00 24,7 11,3 23,9 15 8 37 20 NNW 1011,3 0 0,0
15.07.2019 21:00:00 25,5 11,3 25,0 15 8 45 24 NNW 1010,4 60 0,0
15.07.2019 20:00:00 27,0 11,5 29,5 20 11 42 23 NNW 1009,7 60 0,0
15.07.2019 19:00:00 28,1 11,6 33,8 21 11 53 28 NNW 1009,2 60 0,0
15.07.2019 18:00:00 28,0 11,5 35,2 22 12 44 24 NNW 1008,9 60 0,0
15.07.2019 17:00:00 28,0 11,1 32,9 24 13 51 28 NNW 1008,7 60 0,0
15.07.2019 16:00:00 27,5 11,1 30,5 27 15 51 27 NNW 1008,6 51 0,0
15.07.2019 15:00:00 27,4 10,6 35,7 26 14 52 28 NNW 1008,0 60 0,0
15.07.2019 14:00:00 26,3 10,4 35,0 28 15 51 27 NNW 1007,6 60 0,0
15.07.2019 13:00:00 25,3 10,7 31,6 24 13 53 29 NNW 1007,7 60 0,0
15.07.2019 12:00:00 23,0 11,7 29,6 32 17 65 35 NW 1007,8 60 0,0
15.07.2019 11:00:00 22,6 11,0 30,1 28 15 54 29 NNW 1008,8 60 0,0
15.07.2019 10:00:00 22,3 11,1 26,9 15 8 45 25 NNW 1008,6 60 0,0
15.07.2019 09:00:00 20,9 11,5 20,6 18 10 41 22 NW 1009,0 60 0,0
15.07.2019 08:00:00 19,4 11,2 18,2 18 10 38 21 NNW 1008,8 60 0,0
15.07.2019 07:00:00 18,3 10,9 18,0 24 13 47 25 NW 1008,8 14 0,0
15.07.2019 06:00:00 18,7 10,5 18,1 22 12 46 25 NNW 1008,6 0 0,0
15.07.2019 05:00:00 19,2 10,2 18,7 23 13 46 25 NNW 1008,2 0 0,0
15.07.2019 04:00:00 19,9 10,6 19,2 20 11 43 23 NNW 1008,5 0 0,0
15.07.2019 03:00:00 20,6 11,0 19,9 19 10 40 21 NNW 1008,7 0 0,0
15.07.2019 02:00:00 21,4 10,5 20,7 19 11 46 25 NNW 1009,0 0 0,0
15.07.2019 01:00:00 22,7 10,8 22,0 21 11 48 26 NNW 1009,0 0 0,0
15.07.2019 00:00:00 23,8 10,5 22,9 16 8 47 26 NNW 1008,7 0 0,0
14.07.2019 23:00:00 24,9 9,6 24,0 17 9 50 27 NNW 1008,4 0 0,0
14.07.2019 22:00:00 25,6 9,4 24,5 16 9 43 23 NNW 1007,7 2 0,0
14.07.2019 21:00:00 26,7 9,1 26,3 23 12 46 25 NNW 1007,4 60 0,0
14.07.2019 20:00:00 28,7 9,9 31,3 18 10 38 21 NNW 1007,1 60 0,0
14.07.2019 19:00:00 30,8 10,2 37,6 16 9 38 20 N 1006,8 60 0,0
14.07.2019 18:00:00 31,8 10,5 39,6 15 8 32 18 NW 1007,0 60 0,0
14.07.2019 17:00:00 32,5 11,6 41,5 15 8 33 18 NW 1007,0 60 0,0
14.07.2019 16:00:00 32,6 11,7 41,9 18 10 37 20 NW 1007,4 60 0,0
14.07.2019 15:00:00 32,1 11,3 41,9 19 10 37 20 NW 1007,8 60 0,0
14.07.2019 14:00:00 31,7 11,5 40,9 16 9 36 19 WNW 1008,2 60 0,0
14.07.2019 13:00:00 30,9 11,3 40,6 16 9 30 16 WNW 1008,8 60 0,0
14.07.2019 12:00:00 30,3 11,8 39,0 10 5 22 12 NW 1009,2 60 0,0
14.07.2019 11:00:00 27,8 10,5 36,6 4 2 14 7 SSE 1010,0 60 0,0
14.07.2019 10:00:00 26,2 9,9 31,4 3 2 8 4 S 1010,4 60 0,0
14.07.2019 09:00:00 23,3 10,4 19,4 0 0 12 6 N 1010,5 60 0,0
14.07.2019 08:00:00 18,3 10,4 13,6 3 2 10 5 SSE 1010,5 60 0,0
14.07.2019 07:00:00 14,2 9,6 12,2 6 3 16 8 S 1010,8 19 0,0
14.07.2019 06:00:00 14,8 9,4 12,3 4 2 15 8 SE 1010,8 0 0,0
14.07.2019 05:00:00 16,6 8,5 13,0 3 2 12 6 ENE 1011,0 0 0,0
14.07.2019 04:00:00 19,2 8,5 15,4 0 0 19 10 N 1011,4 0 0,0
14.07.2019 03:00:00 19,8 8,5 15,4 7 4 18 10 E 1011,2 0 0,0
14.07.2019 02:00:00 22,5 8,2 20,5 10 6 27 15 N 1011,2 0 0,0
14.07.2019 01:00:00 23,8 8,2 22,1 16 9 32 17 NNW 1011,3 0 0,0
14.07.2019 00:00:00 24,5 7,6 23,1 15 8 35 19 N 1011,5 0 0,0
13.07.2019 23:00:00 24,8 7,9 23,6 21 11 48 26 N 1011,7 0 0,0
13.07.2019 22:00:00 25,5 8,5 24,7 23 12 47 25 NNW 1011,9 5 0,0
13.07.2019 21:00:00 26,5 8,5 25,9 21 12 52 28 NNW 1011,5 60 0,0
13.07.2019 20:00:00 28,2 8,5 30,6 22 12 52 28 NNW 1010,8 60 0,0
13.07.2019 19:00:00 29,3 7,8 34,6 23 13 57 31 NNW 1011,0 60 0,0
13.07.2019 18:00:00 30,5 7,6 37,5 22 12 55 30 NNW 1011,1 60 0,0
13.07.2019 17:00:00 30,5 7,6 38,6 27 14 56 30 NNW 1011,5 60 0,0
13.07.2019 16:00:00 30,7 7,2 38,1 29 15 57 31 NNW 1012,0 60 0,0
13.07.2019 15:00:00 30,6 9,5 38,6 29 16 61 33 NNW 1011,9 60 0,0
13.07.2019 14:00:00 30,6 10,5 39,4 29 16 61 33 NNW 1012,3 60 0,0
13.07.2019 13:00:00 30,3 10,8 38,0 26 14 53 29 NNW 1012,6 60 0,0
13.07.2019 12:00:00 29,6 11,6 36,9 22 12 45 24 NNW 1012,9 60 0,0
13.07.2019 11:00:00 28,3 13,4 35,8 18 10 47 26 NNW 1013,1 60 0,0
13.07.2019 10:00:00 27,0 12,6 31,8 22 12 48 26 NNW 1013,1 60 0,0
13.07.2019 09:00:00 25,9 11,3 25,1 21 12 45 25 N 1013,4 60 0,0
13.07.2019 08:00:00 24,0 14,1 22,7 15 8 35 19 NW 1013,4 60 0,0
13.07.2019 07:00:00 23,3 13,5 22,3 13 7 37 20 NNW 1013,3 19 0,0
13.07.2019 06:00:00 23,8 13,3 22,4 16 9 52 28 N 1013,1 0 0,0
13.07.2019 05:00:00 24,0 13,2 22,4 19 10 37 20 NNW 1013,0 0 0,0
13.07.2019 04:00:00 23,3 12,9 22,1 17 9 33 18 NW 1013,3 0 0,0
13.07.2019 03:00:00 23,5 12,5 21,9 11 6 20 11 NW 1013,2 0 0,0
13.07.2019 02:00:00 26,3 11,6 24,5 11 6 31 17 N 1012,8 0 0,0
13.07.2019 01:00:00 27,0 11,1 25,2 16 8 33 18 NNW 1012,8 0 0,0
13.07.2019 00:00:00 27,7 11,3 25,6 11 6 29 15 N 1012,5 0 0,0
12.07.2019 23:00:00 28,0 11,9 26,0 9 5 23 13 NNW 1012,3 0 0,0
12.07.2019 22:00:00 28,9 11,9 26,8 7 4 27 15 NNW 1012,0 0 0,0
12.07.2019 21:00:00 30,5 12,4 29,7 15 8 30 16 NNW 1011,5 43 0,0
12.07.2019 20:00:00 32,6 12,8 35,8 12 7 31 17 NNW 1011,1 60 0,0
12.07.2019 19:00:00 34,0 12,4 40,3 13 7 36 20 NNW 1011,1 60 0,0
12.07.2019 18:00:00 34,6 12,9 41,9 12 7 35 19 NNW 1011,1 60 0,0
12.07.2019 17:00:00 34,4 13,3 42,7 13 7 35 19 NNW 1011,3 60 0,0
12.07.2019 16:00:00 34,1 13,0 41,7 16 9 38 21 NW 1012,0 60 0,0
12.07.2019 15:00:00 34,0 12,4 43,9 15 8 36 20 NW 1012,5 60 0,0
12.07.2019 14:00:00 33,6 12,0 42,4 19 10 46 25 NW 1012,8 60 0,0
12.07.2019 13:00:00 32,4 9,2 41,4 21 11 39 21 NW 1013,1 60 0,0
12.07.2019 12:00:00 32,0 9,5 41,2 17 9 32 17 NNW 1013,4 60 0,0
12.07.2019 11:00:00 31,3 11,1 39,1 15 8 23 12 NW 1013,5 60 0,0
12.07.2019 10:00:00 29,7 10,8 34,8 11 6 18 10 WNW 1013,7 60 0,0
12.07.2019 09:00:00 26,1 12,5 22,1 3 1 9 5 SSE 1013,9 60 0,0
12.07.2019 08:00:00 21,2 12,9 16,3 3 2 8 4 NE 1013,9 60 0,0
12.07.2019 07:00:00 17,4 12,7 15,9 3 2 8 4 SE 1013,8 20 0,0
12.07.2019 06:00:00 17,8 12,5 16,0 4 2 6 3 ESE 1013,2 0 0,0
12.07.2019 05:00:00 19,1 12,6 17,7 3 2 8 4 SE 1013,1 0 0,0
12.07.2019 04:00:00 19,0 12,0 16,4 4 2 9 5 E 1013,1 0 0,0
12.07.2019 03:00:00 19,2 11,5 16,4 2 1 10 5 SSE 1013,2 0 0,0
12.07.2019 02:00:00 21,7 11,1 19,8 5 3 9 5 E 1013,1 0 0,0
12.07.2019 01:00:00 23,1 10,2 21,5 3 2 16 8 NW 1013,0 0 0,0
12.07.2019 00:00:00 23,9 9,5 23,0 8 4 20 11 W 1012,9 0 0,0
11.07.2019 23:00:00 24,9 9,6 24,2 10 5 17 9 W 1012,9 0 0,0
11.07.2019 22:00:00 26,0 9,3 25,2 9 5 20 11 W 1012,2 0 0,0
11.07.2019 21:00:00 28,5 8,7 28,0 9 5 22 12 NW 1011,9 0 0,0
11.07.2019 20:00:00 30,0 9,5 30,6 9 5 20 11 NW 1011,6 10 0,0
11.07.2019 19:00:00 30,7 10,1 33,0 10 5 23 12 NW 1011,2 29 0,0
11.07.2019 18:00:00 32,2 9,7 36,6 10 5 21 11 NW 1011,2 14 0,0
11.07.2019 17:00:00 32,8 11,3 39,5 14 7 29 16 NW 1011,6 40 0,0
11.07.2019 16:00:00 33,9 13,4 41,8 9 5 24 13 SW 1011,3 52 0,0
11.07.2019 15:00:00 32,5 12,2 42,3 6 3 18 10 WNW 1011,9 60 0,0
11.07.2019 14:00:00 31,6 13,4 39,3 7 4 22 12 WNW 1012,1 54 0,0
11.07.2019 13:00:00 30,9 14,1 35,1 8 4 20 11 W 1012,8 42 0,0
11.07.2019 12:00:00 29,7 14,7 37,4 6 3 15 8 WNW 1012,6 57 0,0
11.07.2019 11:00:00 28,0 14,6 35,2 4 2 10 5 WNW 1013,1 60 0,0
11.07.2019 10:00:00 25,3 13,5 30,5 3 2 9 5 S 1013,4 60 0,0
11.07.2019 09:00:00 22,2 13,8 21,9 3 1 12 6 SSW 1013,5 44 0,0
11.07.2019 08:00:00 19,5 15,4 15,7 3 2 10 6 WSW 1013,3 60 0,0
11.07.2019 07:00:00 15,6 14,0 14,2 3 2 5 3 SE 1013,3 12 0,0
11.07.2019 06:00:00 15,6 13,6 13,9 4 2 7 4 ESE 1012,9 0 0,0
11.07.2019 05:00:00 15,8 12,9 14,0 2 1 10 6 E 1012,8 0 0,0
11.07.2019 04:00:00 16,4 13,3 14,5 4 2 10 6 E 1012,9 0 0,0
11.07.2019 03:00:00 17,7 13,2 15,5 3 2 10 5 E 1013,1 0 0,0
11.07.2019 02:00:00 19,4 12,9 16,9 3 2 11 6 E 1013,1 0 0,0
11.07.2019 01:00:00 21,4 11,1 17,6 5 3 11 6 NE 1012,4 0 0,0
11.07.2019 00:00:00 22,2 11,0 17,9 3 2 13 7 NNE 1012,0 0 0,0
10.07.2019 23:00:00 24,6 10,1 22,2 10 5 29 16 NNW 1011,9 0 0,0
10.07.2019 22:00:00 25,8 9,6 24,1 14 7 32 18 N 1011,7 10 0,0
10.07.2019 21:00:00 27,2 10,0 26,4 14 8 35 19 NW 1011,1 60 0,0
10.07.2019 20:00:00 29,2 10,8 32,1 16 9 40 21 NNW 1010,5 60 0,0
10.07.2019 19:00:00 30,3 11,3 35,8 20 11 39 21 NNW 1010,2 60 0,0
10.07.2019 18:00:00 31,2 11,6 38,2 16 9 45 24 NNW 1010,4 60 0,0
10.07.2019 17:00:00 32,1 11,8 39,3 14 8 39 21 NW 1010,1 60 0,0
10.07.2019 16:00:00 31,6 11,9 39,5 18 10 40 21 NW 1010,1 60 0,0
10.07.2019 15:00:00 31,3 12,6 41,4 16 9 33 18 NW 1010,3 60 0,0
10.07.2019 14:00:00 30,6 12,9 40,2 16 9 29 16 NW 1010,5 60 0,0
10.07.2019 13:00:00 29,5 12,4 37,1 14 8 28 15 NW 1010,6 60 0,0
10.07.2019 12:00:00 27,8 11,8 35,2 16 9 36 19 NW 1010,8 60 0,0
10.07.2019 11:00:00 26,1 11,4 32,7 15 8 29 16 NW 1010,9 60 0,0
10.07.2019 10:00:00 24,6 11,9 27,3 16 8 31 17 NNW 1010,8 60 0,0
10.07.2019 09:00:00 21,9 10,4 22,3 21 11 35 19 NW 1011,0 60 0,0
10.07.2019 08:00:00 20,7 10,5 16,1 10 5 20 11 NNW 1010,8 60 0,0
10.07.2019 07:00:00 17,6 10,7 14,1 6 4 11 6 N 1010,9 20 0,0
10.07.2019 06:00:00 17,6 9,7 14,2 0 0 15 8 N 1010,9 0 0,0
10.07.2019 05:00:00 18,6 9,6 15,9 9 5 19 10 W 1010,9 0 0,0
10.07.2019 04:00:00 18,9 11,0 16,1 7 4 21 11 NNW 1010,9 0 0,0
10.07.2019 03:00:00 21,0 11,1 16,7 13 7 24 13 NNW 1011,0 0 0,0
10.07.2019 02:00:00 18,9 15,0 17,0 12 6 20 11 NNW 1011,1 0 0,0
10.07.2019 01:00:00 18,7 17,9 17,9 0 0 6 4 N 1011,3 0 0,2
10.07.2019 00:00:00 19,5 18,7 18,6 0 0 6 3 N 1011,6 0 0,0

tt = Température de l'air
td = dewpoint
tt 5cm = Température de l'air 5cm
ff = Vitesse du vent
fx = gusts
dd = Direction du vent
ppp = reduced air pressure
sd = Ensoleillement
rr = Quantités de précipitations

stations d'obs. à proximité